Time;durP1;ratioP1;P1;durP2;ratioP2;P2;SDS_P1;SDS_P2;PMS_P1;PMS_P2;Temp;Humidity;BMP_temperature;BMP_pressure;BME280_temperature;BME280_humidity;BME280_pressure;Samples;Min_cycle;Max_cycle;Signal;HPM_P1;HPM_P2
2021/11/09 00:01:09;;;;;;;12.82;5.22;;;10.40;99.90;;;;;;6232612;23;20236;-83
2021/11/09 00:03:44;;;;;;;9.38;5.47;;;10.30;99.90;;;;;;6230835;23;20233;-82
2021/11/09 00:06:18;;;;;;;13.20;5.95;;;10.30;99.90;;;;;;6231284;23;20248;-81
2021/11/09 00:08:49;;;;;;;17.58;5.47;;;10.20;99.90;;;;;;6230857;23;20700;-83
2021/11/09 00:11:17;;;;;;;12.18;5.05;;;10.20;99.90;;;;;;6230180;23;20172;-83
2021/11/09 00:13:44;;;;;;;14.15;6.38;;;10.20;99.90;;;;;;6230727;23;20177;-83
2021/11/09 00:16:13;;;;;;;16.75;5.43;;;10.30;99.90;;;;;;6222836;23;20237;-84
2021/11/09 00:19:01;;;;;;;13.48;6.47;;;10.30;99.90;;;;;;6220174;23;20275;-83
2021/11/09 00:21:29;;;;;;;15.57;4.40;;;10.30;99.90;;;;;;6219395;23;20172;-82
2021/11/09 00:23:59;;;;;;;8.85;4.55;;;10.20;99.90;;;;;;6218573;23;20709;-83
2021/11/09 00:26:27;;;;;;;11.68;4.55;;;10.20;99.90;;;;;;6218252;23;20168;-84
2021/11/09 00:28:54;;;;;;;16.80;5.00;;;10.20;99.90;;;;;;6219385;23;20215;-84
2021/11/09 00:31:22;;;;;;;14.07;5.38;;;10.20;99.90;;;;;;6224163;23;20184;-83
2021/11/09 00:33:49;;;;;;;11.68;5.20;;;10.20;99.90;;;;;;6219858;23;20260;-84
2021/11/09 00:36:17;;;;;;;14.02;5.13;;;10.10;99.90;;;;;;6219636;23;20262;-84
2021/11/09 00:38:45;;;;;;;9.23;5.95;;;10.10;99.90;;;;;;6222061;23;20210;-84
2021/11/09 00:41:12;;;;;;;13.15;5.03;;;10.00;99.90;;;;;;6224572;23;20199;-84
2021/11/09 00:43:39;;;;;;;9.90;6.53;;;10.00;99.90;;;;;;6223692;23;20172;-83
2021/11/09 00:46:06;;;;;;;10.18;5.63;;;10.00;99.90;;;;;;6223129;23;20589;-84
2021/11/09 00:48:33;;;;;;;8.98;5.65;;;10.10;99.90;;;;;;6222462;23;20220;-84
2021/11/09 00:51:00;;;;;;;8.98;6.25;;;10.10;99.90;;;;;;6221254;23;20215;-83
2021/11/09 00:53:28;;;;;;;10.30;6.47;;;10.10;99.90;;;;;;6221152;23;20237;-83
2021/11/09 00:55:55;;;;;;;6.72;5.20;;;10.10;99.90;;;;;;6220347;23;20174;-83
2021/11/09 00:58:22;;;;;;;8.57;6.07;;;10.20;99.90;;;;;;6222216;23;20207;-83
2021/11/09 01:00:49;;;;;;;9.60;6.30;;;10.10;99.90;;;;;;6221596;23;20188;-83
2021/11/09 01:03:16;;;;;;;9.00;6.05;;;10.10;99.90;;;;;;6220483;23;20220;-82
2021/11/09 01:05:44;;;;;;;11.50;6.18;;;10.10;99.90;;;;;;6220996;23;20527;-83
2021/11/09 01:08:14;;;;;;;10.52;5.30;;;10.10;99.90;;;;;;6221194;23;20234;-84
2021/11/09 01:10:45;;;;;;;12.30;6.30;;;10.20;99.90;;;;;;6221673;23;20236;-84
2021/11/09 01:13:12;;;;;;;8.70;6.88;;;10.20;99.90;;;;;;6221383;23;20201;-83
2021/11/09 01:15:48;;;;;;;13.38;7.70;;;10.30;99.90;;;;;;6222309;23;20180;-83
2021/11/09 01:18:15;;;;;;;14.00;8.82;;;10.30;99.90;;;;;;6221506;23;20235;-84
2021/11/09 01:20:42;;;;;;;16.55;8.93;;;10.20;99.90;;;;;;6221062;23;20220;-83
2021/11/09 01:23:09;;;;;;;12.95;9.45;;;10.20;99.90;;;;;;6225612;23;20233;-83
2021/11/09 01:25:36;;;;;;;11.65;9.13;;;10.10;99.90;;;;;;6224049;23;20192;-83
2021/11/09 01:28:04;;;;;;;14.10;10.13;;;10.10;99.90;;;;;;6222074;23;20199;-81
2021/11/09 01:30:31;;;;;;;16.55;9.77;;;10.10;99.90;;;;;;6222971;23;20184;-82
2021/11/09 01:32:59;;;;;;;14.50;10.15;;;10.00;99.90;;;;;;6225218;23;20216;-82
2021/11/09 01:35:26;;;;;;;21.77;10.93;;;10.00;99.90;;;;;;6225699;23;20183;-82
2021/11/09 01:37:53;;;;;;;15.13;11.40;;;10.00;99.90;;;;;;6227207;23;20236;-82
2021/11/09 01:40:23;;;;;;;16.38;10.48;;;10.00;99.90;;;;;;6227004;23;20283;-83
2021/11/09 01:42:50;;;;;;;19.92;12.05;;;10.10;99.90;;;;;;6226769;23;20193;-83
2021/11/09 01:45:19;;;;;;;20.10;11.75;;;10.10;99.90;;;;;;6229747;23;20438;-81
2021/11/09 01:47:49;;;;;;;20.63;12.02;;;10.10;99.90;;;;;;6228732;23;20685;-81
2021/11/09 01:50:19;;;;;;;21.85;12.10;;;10.10;99.90;;;;;;6229499;23;20510;-84
2021/11/09 01:52:46;;;;;;;18.88;12.15;;;10.00;99.90;;;;;;6229002;23;20230;-85
2021/11/09 01:55:15;;;;;;;20.85;15.43;;;10.00;99.90;;;;;;6227476;23;20232;-81
2021/11/09 01:57:42;;;;;;;20.13;13.32;;;10.00;99.90;;;;;;6228644;23;20682;-82
2021/11/09 02:00:17;;;;;;;19.58;13.00;;;10.00;99.90;;;;;;6227367;23;20251;-82
2021/11/09 02:02:46;;;;;;;18.40;12.98;;;10.00;99.90;;;;;;6227260;23;20199;-84
2021/11/09 02:05:14;;;;;;;23.13;15.90;;;10.00;99.90;;;;;;6228131;23;20231;-82
2021/11/09 02:07:46;;;;;;;16.30;11.70;;;10.00;99.90;;;;;;6227651;23;20471;-82
2021/11/09 02:10:13;;;;;;;28.00;15.45;;;9.90;99.90;;;;;;6227632;23;20187;-83
2021/11/09 02:12:41;;;;;;;27.40;16.55;;;10.00;99.90;;;;;;6227012;23;20224;-83
2021/11/09 02:15:09;;;;;;;22.83;15.13;;;10.00;99.90;;;;;;6226118;23;20184;-82
2021/11/09 02:17:37;;;;;;;27.27;14.77;;;10.00;99.90;;;;;;6224439;23;20185;-82
2021/11/09 02:20:08;;;;;;;29.58;16.00;;;10.00;99.90;;;;;;6223459;23;20191;-82
2021/11/09 02:22:37;;;;;;;23.00;15.63;;;10.00;99.90;;;;;;6223532;23;20313;-82
2021/11/09 02:25:05;;;;;;;22.38;14.40;;;10.00;99.90;;;;;;6226281;23;20266;-86
2021/11/09 02:27:32;;;;;;;23.25;16.25;;;10.00;99.90;;;;;;6227375;23;20163;-82
2021/11/09 02:29:59;;;;;;;19.67;14.93;;;10.10;99.90;;;;;;6226657;23;20724;-84
2021/11/09 02:32:26;;;;;;;20.00;14.75;;;10.20;99.90;;;;;;6225754;23;20223;-82
2021/11/09 02:34:53;;;;;;;19.40;14.43;;;10.10;99.90;;;;;;6222917;23;20179;-85
2021/11/09 02:37:21;;;;;;;18.08;15.05;;;10.10;99.90;;;;;;6224642;23;20178;-83
2021/11/09 02:39:49;;;;;;;23.30;16.85;;;10.10;99.90;;;;;;6222720;23;20176;-83
2021/11/09 02:42:19;;;;;;;21.50;16.25;;;10.10;99.90;;;;;;6222753;23;20253;-85
2021/11/09 02:44:51;;;;;;;24.38;15.68;;;10.00;99.90;;;;;;6221234;23;20180;-84
2021/11/09 02:47:20;;;;;;;32.10;16.27;;;9.90;99.90;;;;;;6222288;23;20236;-83
2021/11/09 02:49:54;;;;;;;20.08;14.00;;;9.90;99.90;;;;;;6222695;23;20448;-83
2021/11/09 02:52:22;;;;;;;19.40;14.68;;;9.80;99.90;;;;;;6224397;23;20187;-84
2021/11/09 02:54:56;;;;;;;21.52;14.50;;;9.80;99.90;;;;;;6224004;23;20203;-85
2021/11/09 02:57:29;;;;;;;23.35;16.00;;;9.80;99.90;;;;;;6222551;23;20167;-84
2021/11/09 03:00:03;;;;;;;25.80;16.33;;;9.80;99.90;;;;;;6225495;23;20165;-84
2021/11/09 03:02:39;;;;;;;22.00;15.88;;;9.80;99.90;;;;;;6221716;23;20193;-84
2021/11/09 03:05:12;;;;;;;23.65;16.35;;;9.80;99.90;;;;;;6222226;23;20172;-83
2021/11/09 03:07:43;;;;;;;22.10;14.68;;;9.80;99.90;;;;;;6223160;23;20160;-83
2021/11/09 03:10:23;;;;;;;26.13;15.88;;;9.70;99.90;;;;;;6228396;23;20168;-84
2021/11/09 03:12:50;;;;;;;20.40;13.65;;;9.70;99.90;;;;;;6221262;23;20249;-85
2021/11/09 03:15:21;;;;;;;19.25;13.48;;;9.80;99.90;;;;;;6221813;23;20184;-82
2021/11/09 03:17:52;;;;;;;18.90;12.63;;;9.80;99.90;;;;;;6225517;23;20166;-82
2021/11/09 03:20:26;;;;;;;20.50;14.35;;;9.90;99.90;;;;;;6225622;23;20182;-82
2021/11/09 03:44:57;;;;;;;22.67;15.00;;;9.90;99.90;;;;;;6218777;23;20167;-82
2021/11/09 03:47:25;;;;;;;22.38;13.63;;;9.80;99.90;;;;;;6219637;23;20204;-84
2021/11/09 03:49:53;;;;;;;25.45;15.45;;;9.90;99.90;;;;;;6224091;23;20180;-84
2021/11/09 03:52:26;;;;;;;22.10;14.45;;;9.90;99.90;;;;;;6229006;23;20211;-82
2021/11/09 03:54:59;;;;;;;26.35;17.50;;;9.90;99.90;;;;;;6228872;23;20258;-83
2021/11/09 03:57:29;;;;;;;27.95;16.52;;;9.90;99.90;;;;;;6227744;23;20164;-84
2021/11/09 04:00:07;;;;;;;24.63;15.25;;;9.90;99.90;;;;;;6221425;23;20160;-84
2021/11/09 04:02:46;;;;;;;27.50;17.77;;;9.90;99.90;;;;;;6219869;23;20199;-83
2021/11/09 04:05:14;;;;;;;25.30;15.65;;;9.90;99.90;;;;;;6221226;23;20614;-82
2021/11/09 04:07:47;;;;;;;28.60;18.52;;;9.90;99.90;;;;;;6227145;23;20175;-83
2021/11/09 04:10:20;;;;;;;25.27;15.93;;;9.90;99.90;;;;;;6228071;23;20167;-82
2021/11/09 04:12:59;;;;;;;29.92;18.13;;;10.00;99.90;;;;;;6227832;23;20209;-84
2021/11/09 04:15:39;;;;;;;28.73;16.42;;;10.00;99.90;;;;;;6219816;23;20167;-83
2021/11/09 04:20:59;;;;;;;24.80;15.27;;;9.90;99.90;;;;;;6222741;23;20191;-82
2021/11/09 04:32:12;;;;;;;25.40;16.85;;;10.10;99.90;;;;;;6223862;22;20196;-84
2021/11/09 04:35:07;;;;;;;23.30;16.17;;;10.00;99.90;;;;;;6231644;23;20222;-83
2021/11/09 05:02:37;;;;;;;27.65;16.02;;;10.10;99.90;;;;;;6221111;23;20213;-83
2021/11/09 05:10:33;;;;;;;28.27;16.13;;;9.90;99.90;;;;;;6225107;23;20177;-82
2021/11/09 05:13:01;;;;;;;26.80;14.27;;;9.90;99.90;;;;;;6221027;23;20229;-85
2021/11/09 05:15:28;;;;;;;23.23;12.57;;;9.90;99.90;;;;;;6220616;23;20192;-82
2021/11/09 05:17:57;;;;;;;21.30;13.48;;;9.80;99.90;;;;;;6222001;23;20182;-83
2021/11/09 05:20:25;;;;;;;28.65;14.73;;;9.90;99.90;;;;;;6225009;23;20215;-84
2021/11/09 05:22:52;;;;;;;21.20;14.57;;;9.70;99.90;;;;;;6220015;23;20209;-84
2021/11/09 05:25:19;;;;;;;21.77;12.15;;;9.70;99.90;;;;;;6218720;23;20603;-85
2021/11/09 05:27:47;;;;;;;30.08;13.18;;;9.70;99.90;;;;;;6224359;23;20259;-83
2021/11/09 05:30:15;;;;;;;26.65;14.07;;;9.70;99.90;;;;;;6222226;23;20176;-84
2021/11/09 05:32:42;;;;;;;21.42;12.98;;;9.70;99.90;;;;;;6221964;23;20275;-83
2021/11/09 05:35:12;;;;;;;21.00;12.98;;;9.60;99.90;;;;;;6221483;23;20223;-82
2021/11/09 05:37:44;;;;;;;19.92;12.10;;;9.50;99.90;;;;;;6220225;23;20513;-84
2021/11/09 05:40:12;;;;;;;23.52;14.35;;;9.50;99.90;;;;;;6221193;23;20207;-83
2021/11/09 05:42:39;;;;;;;20.13;13.32;;;9.40;99.90;;;;;;6221652;23;20235;-83
2021/11/09 05:45:09;;;;;;;26.90;13.98;;;9.40;99.90;;;;;;6221562;23;20207;-82
2021/11/09 05:47:36;;;;;;;22.02;14.40;;;9.40;99.90;;;;;;6223393;23;20191;-83
2021/11/09 05:50:05;;;;;;;21.75;12.18;;;9.40;99.90;;;;;;6220801;23;20243;-84
2021/11/09 05:52:36;;;;;;;22.67;12.73;;;9.30;99.90;;;;;;6222563;23;20230;-82
2021/11/09 05:55:04;;;;;;;24.77;15.82;;;9.30;99.90;;;;;;6222424;23;20231;-83
2021/11/09 05:57:30;;;;;;;21.13;15.32;;;9.30;99.90;;;;;;6222346;23;20303;-81
2021/11/09 05:59:57;;;;;;;27.38;12.45;;;9.20;99.90;;;;;;6223567;23;20231;-84
2021/11/09 06:02:24;;;;;;;27.48;15.25;;;9.00;99.90;;;;;;6224387;23;20238;-84
2021/11/09 06:04:54;;;;;;;24.38;14.80;;;9.30;99.90;;;;;;6222857;23;20155;-84
2021/11/09 06:07:21;;;;;;;32.50;17.95;;;9.20;99.90;;;;;;6222132;23;20180;-83
2021/11/09 06:09:49;;;;;;;26.85;15.70;;;9.10;99.90;;;;;;6238140;23;20175;-83
2021/11/09 06:12:16;;;;;;;27.60;17.52;;;9.10;99.90;;;;;;6242769;22;20190;-84
2021/11/09 06:14:43;;;;;;;26.67;14.88;;;9.10;99.90;;;;;;6243795;23;20224;-85
2021/11/09 06:17:10;;;;;;;27.25;15.48;;;9.10;99.90;;;;;;6243491;23;20172;-85
2021/11/09 06:19:37;;;;;;;30.77;15.68;;;9.10;99.90;;;;;;6244248;23;20168;-82
2021/11/09 06:22:04;;;;;;;30.02;16.17;;;9.00;99.90;;;;;;6243963;23;20195;-84
2021/11/09 06:24:31;;;;;;;22.45;15.63;;;9.00;99.90;;;;;;6244264;23;20207;-86
2021/11/09 06:27:00;;;;;;;27.60;15.63;;;9.00;99.90;;;;;;6244644;23;20202;-84
2021/11/09 06:29:27;;;;;;;34.85;16.80;;;9.00;99.90;;;;;;6243422;23;20171;-85
2021/11/09 06:31:54;;;;;;;23.20;13.70;;;9.00;99.90;;;;;;6243889;23;20195;-83
2021/11/09 06:34:43;;;;;;;25.92;14.77;;;9.00;99.90;;;;;;6244242;23;20152;-88
2021/11/09 06:37:10;;;;;;;24.25;16.85;;;9.00;99.90;;;;;;6243749;22;20163;-86
2021/11/09 06:39:58;;;;;;;21.88;15.30;;;9.00;99.90;;;;;;6243697;23;20159;-88
2021/11/09 06:42:27;;;;;;;24.33;15.88;;;9.00;99.90;;;;;;6241995;23;20403;-88
2021/11/09 06:44:54;;;;;;;23.45;15.70;;;9.00;99.90;;;;;;6241876;23;20179;-85
2021/11/09 06:47:21;;;;;;;33.20;18.48;;;8.90;99.90;;;;;;6239551;23;20171;-83
2021/11/09 06:49:48;;;;;;;28.25;16.48;;;9.00;99.90;;;;;;6232439;23;20198;-83
2021/11/09 06:52:14;;;;;;;25.85;16.55;;;8.90;99.90;;;;;;6230526;23;20184;-82
2021/11/09 06:54:42;;;;;;;36.55;18.92;;;8.90;99.90;;;;;;6231345;23;20180;-83
2021/11/09 06:57:10;;;;;;;36.20;19.75;;;9.00;99.90;;;;;;6231705;23;20195;-84
2021/11/09 06:59:38;;;;;;;29.08;18.20;;;8.90;99.90;;;;;;6227963;23;20186;-83
2021/11/09 07:02:06;;;;;;;32.15;17.13;;;8.90;99.90;;;;;;6224203;23;20278;-83
2021/11/09 07:04:34;;;;;;;34.97;17.98;;;8.90;99.90;;;;;;6226301;23;20159;-85
2021/11/09 07:07:03;;;;;;;45.05;20.50;;;9.00;99.90;;;;;;6229152;23;20255;-82
2021/11/09 07:09:32;;;;;;;31.60;19.00;;;8.90;99.90;;;;;;6228629;23;20176;-84
2021/11/09 07:11:59;;;;;;;43.53;22.83;;;9.00;99.90;;;;;;6225489;23;20195;-83
2021/11/09 07:14:26;;;;;;;32.03;19.88;;;9.10;99.90;;;;;;6228867;23;20179;-83
2021/11/09 07:16:54;;;;;;;32.25;18.80;;;9.10;99.90;;;;;;6230649;23;20203;-82
2021/11/09 07:19:21;;;;;;;31.08;19.27;;;9.20;99.90;;;;;;6233364;23;20203;-86
2021/11/09 07:21:49;;;;;;;32.13;20.67;;;9.30;99.90;;;;;;6233291;23;20215;-83
2021/11/09 07:24:16;;;;;;;28.17;21.05;;;9.20;99.90;;;;;;6231352;23;20160;-84
2021/11/09 07:26:44;;;;;;;43.60;22.52;;;9.30;99.90;;;;;;6233990;23;20219;-84
2021/11/09 07:29:11;;;;;;;37.13;21.08;;;9.50;99.90;;;;;;6230192;23;20210;-83
2021/11/09 07:31:38;;;;;;;37.67;19.08;;;9.40;99.90;;;;;;6230271;23;20203;-86
2021/11/09 07:34:07;;;;;;;33.95;20.90;;;9.50;99.90;;;;;;6234287;23;20201;-85
2021/11/09 07:36:35;;;;;;;28.48;18.98;;;9.50;99.90;;;;;;6234125;23;20186;-86
2021/11/09 07:39:05;;;;;;;34.60;19.05;;;9.70;99.90;;;;;;6229395;23;20175;-86
2021/11/09 07:41:32;;;;;;;31.70;17.15;;;10.10;99.90;;;;;;6225411;23;20251;-85
2021/11/09 07:44:02;;;;;;;27.27;17.35;;;10.60;99.90;;;;;;6227409;23;20222;-83
2021/11/09 07:46:31;;;;;;;27.17;16.95;;;11.20;99.90;;;;;;6231261;23;20187;-83
2021/11/09 07:48:58;;;;;;;27.48;16.52;;;11.90;99.90;;;;;;6231780;23;20188;-85
2021/11/09 07:51:27;;;;;;;23.05;16.05;;;12.40;99.90;;;;;;6228655;23;20191;-86
2021/11/09 07:53:58;;;;;;;17.52;12.27;;;12.90;99.90;;;;;;6230844;23;20198;-84
2021/11/09 07:56:26;;;;;;;26.88;13.77;;;13.40;99.90;;;;;;6229841;23;20156;-85
2021/11/09 07:59:23;;;;;;;22.90;13.65;;;14.00;99.90;;;;;;6230178;23;20176;-86
2021/11/09 08:02:00;;;;;;;24.23;15.85;;;14.80;99.90;;;;;;6229910;23;20209;-84
2021/11/09 08:04:31;;;;;;;17.45;13.75;;;15.30;99.90;;;;;;6227111;23;20253;-85
2021/11/09 08:07:02;;;;;;;23.93;12.53;;;15.50;99.90;;;;;;6226124;23;20634;-85
2021/11/09 08:09:29;;;;;;;17.13;11.53;;;15.90;99.90;;;;;;6225838;23;20391;-86
2021/11/09 08:11:57;;;;;;;18.90;13.20;;;16.20;99.90;;;;;;6223687;23;20424;-87
2021/11/09 08:14:25;;;;;;;21.37;15.00;;;16.40;99.90;;;;;;6222596;23;20429;-87
2021/11/09 08:16:53;;;;;;;21.63;13.57;;;16.60;99.90;;;;;;6223901;23;20437;-86
2021/11/09 08:19:21;;;;;;;19.27;11.67;;;16.80;99.90;;;;;;6226102;23;20438;-86
2021/11/09 08:21:49;;;;;;;19.00;13.80;;;16.90;99.90;;;;;;6226235;23;20451;-86
2021/11/09 08:24:20;;;;;;;27.60;15.00;;;16.90;99.90;;;;;;6225127;23;20412;-88
2021/11/09 08:26:49;;;;;;;21.07;13.10;;;17.10;99.90;;;;;;6225359;23;20893;-84
2021/11/09 08:29:19;;;;;;;24.17;14.10;;;16.80;99.90;;;;;;6225251;23;20395;-84
2021/11/09 08:31:47;;;;;;;19.30;12.03;;;16.90;99.90;;;;;;6225833;23;20422;-84
2021/11/09 08:34:15;;;;;;;18.03;11.27;;;17.10;99.90;;;;;;6225982;23;20441;-85
2021/11/09 08:36:44;;;;;;;22.23;11.47;;;17.50;99.30;;;;;;6227399;23;20404;-85
2021/11/09 08:39:16;;;;;;;24.10;11.97;;;17.30;98.30;;;;;;6225314;23;20391;-84
2021/11/09 08:41:47;;;;;;;17.07;11.57;;;17.60;97.90;;;;;;6226929;23;20454;-86
2021/11/09 08:44:17;;;;;;;18.37;11.67;;;17.80;96.90;;;;;;6240239;23;20406;-84
2021/11/09 08:46:50;;;;;;;22.90;12.50;;;18.00;96.10;;;;;;6240873;23;20428;-84
2021/11/09 08:49:18;;;;;;;24.47;12.17;;;18.30;95.80;;;;;;6238969;23;20401;-84
2021/11/09 08:51:46;;;;;;;21.47;13.70;;;18.40;95.50;;;;;;6239462;23;20444;-84
2021/11/09 08:54:15;;;;;;;24.03;12.20;;;17.40;96.30;;;;;;6236999;23;20417;-83
2021/11/09 09:05:01;;;;;;;22.97;11.93;;;17.80;96.20;;;;;;6235378;23;20468;-86
2021/11/09 09:07:30;;;;;;;26.20;13.07;;;17.70;96.40;;;;;;6235397;23;20402;-82
2021/11/09 09:09:57;;;;;;;23.07;12.57;;;17.30;96.10;;;;;;6230046;23;20410;-85
2021/11/09 09:12:26;;;;;;;16.93;12.03;;;17.50;96.80;;;;;;6230279;23;20457;-83
2021/11/09 09:14:54;;;;;;;22.27;12.90;;;17.60;96.40;;;;;;6232701;23;20413;-83
2021/11/09 09:17:21;;;;;;;23.70;11.90;;;17.20;96.70;;;;;;6233441;23;20967;-84
2021/11/09 09:19:52;;;;;;;22.90;10.70;;;17.30;97.30;;;;;;6233189;23;20414;-83
2021/11/09 09:22:22;;;;;;;27.07;11.80;;;17.60;96.50;;;;;;6227874;22;20831;-86
2021/11/09 09:25:05;;;;;;;27.63;12.47;;;17.80;96.10;;;;;;6228157;23;20468;-87
2021/11/09 09:27:50;;;;;;;25.47;11.40;;;17.60;95.60;;;;;;6227830;23;20731;-84
2021/11/09 09:30:34;;;;;;;20.53;11.03;;;17.20;96.40;;;;;;6227951;23;20417;-85
2021/11/09 09:33:20;;;;;;;23.43;10.93;;;17.00;96.80;;;;;;6223740;23;20921;-85
2021/11/09 09:52:33;;;;;;;25.50;10.90;;;17.30;96.40;;;;;;6225839;23;20779;-84
2021/11/09 09:55:20;;;;;;;23.90;10.30;;;17.10;95.90;;;;;;6223166;23;20418;-83
2021/11/09 09:57:48;;;;;;;21.43;10.17;;;17.20;95.20;;;;;;6223887;23;20379;-83
2021/11/09 10:00:19;;;;;;;26.80;11.80;;;17.20;96.40;;;;;;6223178;23;20498;-84
2021/11/09 10:02:51;;;;;;;18.23;10.20;;;17.00;95.30;;;;;;6222459;23;20928;-84
2021/11/09 10:05:20;;;;;;;27.60;10.87;;;16.70;95.80;;;;;;6223271;23;20990;-85
2021/11/09 10:07:52;;;;;;;19.07;9.70;;;17.00;95.80;;;;;;6223821;23;20893;-84
2021/11/09 10:10:20;;;;;;;22.03;9.90;;;16.60;96.30;;;;;;6223600;23;20477;-85
2021/11/09 10:12:54;;;;;;;21.77;8.70;;;16.70;95.90;;;;;;6223467;23;20466;-84
2021/11/09 10:15:26;;;;;;;21.10;10.90;;;17.10;95.00;;;;;;6226045;23;20402;-85
2021/11/09 10:17:56;;;;;;;16.33;8.87;;;16.80;95.40;;;;;;6222751;22;20398;-85
2021/11/09 10:20:27;;;;;;;18.30;9.47;;;16.40;95.70;;;;;;6224578;23;20496;-85
2021/11/09 10:22:57;;;;;;;18.25;9.85;;;16.30;96.50;;;;;;6223948;23;20457;-85
2021/11/09 10:25:25;;;;;;;22.65;9.25;;;16.00;97.00;;;;;;6223112;23;20215;-83
2021/11/09 10:27:58;;;;;;;16.42;8.77;;;15.10;98.20;;;;;;6224911;23;20179;-85
2021/11/09 10:30:31;;;;;;;17.92;8.55;;;15.00;99.90;;;;;;6223744;23;20243;-83
2021/11/09 10:32:59;;;;;;;20.02;11.23;;;15.00;99.90;;;;;;6223760;23;20265;-83
2021/11/09 10:35:26;;;;;;;24.42;10.18;;;14.90;99.70;;;;;;6223579;23;20202;-83
2021/11/09 10:37:55;;;;;;;16.80;9.30;;;14.70;99.60;;;;;;6225633;23;20189;-83
2021/11/09 10:40:24;;;;;;;20.92;9.40;;;14.30;99.90;;;;;;6227990;23;20218;-82
2021/11/09 10:42:54;;;;;;;23.20;10.88;;;13.80;99.90;;;;;;6223086;23;20210;-82
2021/11/09 10:45:23;;;;;;;20.98;8.32;;;13.90;99.90;;;;;;6223724;23;20184;-83
2021/11/09 10:47:53;;;;;;;16.27;8.55;;;14.00;99.90;;;;;;6223318;23;20234;-83
2021/11/09 10:50:22;;;;;;;22.10;9.07;;;14.20;99.90;;;;;;6222260;23;20230;-82
2021/11/09 10:53:00;;;;;;;17.27;8.10;;;14.00;99.90;;;;;;6222483;23;20218;-83
2021/11/09 10:55:32;;;;;;;18.45;8.18;;;13.70;99.90;;;;;;6222463;23;20592;-82
2021/11/09 10:58:14;;;;;;;18.83;7.97;;;13.40;99.90;;;;;;6221415;23;20756;-81
2021/11/09 11:00:57;;;;;;;19.92;8.65;;;13.50;99.90;;;;;;6223210;23;20187;-81
2021/11/09 11:03:35;;;;;;;16.05;6.97;;;13.30;99.90;;;;;;6222156;23;20246;-83
2021/11/09 11:06:15;;;;;;;20.40;8.90;;;13.40;99.90;;;;;;6222685;23;20218;-81
2021/11/09 11:08:42;;;;;;;14.82;7.13;;;13.50;99.90;;;;;;6222827;23;20226;-83
2021/11/09 11:11:17;;;;;;;22.33;8.32;;;13.30;99.90;;;;;;6225253;23;20172;-87
2021/11/09 11:13:44;;;;;;;17.73;7.65;;;13.40;99.90;;;;;;6223768;23;20265;-87
2021/11/09 11:16:16;;;;;;;19.42;7.30;;;13.30;99.90;;;;;;6222230;23;20218;-84
2021/11/09 11:18:47;;;;;;;22.27;7.40;;;13.30;99.90;;;;;;6224062;23;20221;-83
2021/11/09 11:21:15;;;;;;;19.77;7.72;;;13.30;99.90;;;;;;6226405;23;20164;-83
2021/11/09 11:23:44;;;;;;;15.65;8.23;;;13.40;99.90;;;;;;6226448;23;20188;-83
2021/11/09 11:26:12;;;;;;;21.60;8.95;;;13.40;99.90;;;;;;6225750;23;20242;-84
2021/11/09 11:28:41;;;;;;;13.30;7.40;;;13.40;99.90;;;;;;6227978;23;20206;-82
2021/11/09 11:31:10;;;;;;;13.60;7.00;;;13.50;99.90;;;;;;6229671;23;20642;-82
2021/11/09 11:33:37;;;;;;;21.58;9.50;;;13.40;99.90;;;;;;6229702;23;20187;-84
2021/11/09 11:36:07;;;;;;;17.65;8.82;;;13.20;99.90;;;;;;6228941;23;20166;-82
2021/11/09 11:38:41;;;;;;;19.75;9.05;;;13.30;99.90;;;;;;6226377;23;20202;-83
2021/11/09 11:41:08;;;;;;;18.48;8.23;;;13.20;99.90;;;;;;6229646;23;20197;-83
2021/11/09 11:43:53;;;;;;;16.63;8.32;;;13.30;99.90;;;;;;6234178;23;20241;-87
2021/11/09 11:46:48;;;;;;;19.95;7.68;;;13.20;99.90;;;;;;6235343;23;20179;-84
2021/11/09 11:49:19;;;;;;;19.38;8.50;;;13.00;99.90;;;;;;6233392;23;20151;-85
2021/11/09 11:52:09;;;;;;;19.35;8.07;;;13.00;99.90;;;;;;6231964;23;20199;-82
2021/11/09 11:54:47;;;;;;;15.23;8.40;;;12.90;99.90;;;;;;6230611;23;20218;-83
2021/11/09 11:57:32;;;;;;;19.80;9.68;;;13.00;99.90;;;;;;6228869;23;20223;-82
2021/11/09 12:00:00;;;;;;;22.65;8.77;;;13.00;99.90;;;;;;6230228;23;20622;-83
2021/11/09 12:02:36;;;;;;;22.35;8.98;;;13.00;99.90;;;;;;6228413;23;20195;-82
2021/11/09 12:05:04;;;;;;;25.27;9.63;;;13.10;99.90;;;;;;6229932;23;20178;-81
2021/11/09 12:07:53;;;;;;;17.23;8.63;;;12.90;99.90;;;;;;6228885;23;20356;-82
2021/11/09 12:10:21;;;;;;;15.85;7.63;;;12.90;99.90;;;;;;6226637;23;20270;-83
2021/11/09 12:13:01;;;;;;;17.88;7.43;;;12.80;99.90;;;;;;6224972;23;20243;-83
2021/11/09 12:15:50;;;;;;;16.50;9.75;;;12.90;99.90;;;;;;6222843;23;20163;-83
2021/11/09 12:18:37;;;;;;;27.00;9.15;;;12.80;99.90;;;;;;6223216;23;20186;-82
2021/11/09 12:21:06;;;;;;;25.77;9.63;;;12.80;99.90;;;;;;6225820;23;20167;-82
2021/11/09 12:23:36;;;;;;;22.05;9.27;;;12.70;99.90;;;;;;6230579;23;20206;-81
2021/11/09 12:26:04;;;;;;;20.95;9.80;;;12.80;99.90;;;;;;6230659;23;20181;-82
2021/11/09 12:28:33;;;;;;;20.55;9.18;;;12.80;99.90;;;;;;6230510;23;20626;-82
2021/11/09 12:31:01;;;;;;;17.10;8.93;;;12.90;99.90;;;;;;6224109;23;20266;-83
2021/11/09 12:33:31;;;;;;;14.63;7.75;;;12.90;99.90;;;;;;6223293;23;20198;-83
2021/11/09 12:36:20;;;;;;;22.88;7.30;;;12.90;99.90;;;;;;6225948;23;20178;-82
2021/11/09 12:38:51;;;;;;;14.30;8.48;;;12.90;99.90;;;;;;6220598;22;20213;-82
2021/11/09 12:41:20;;;;;;;20.23;8.05;;;12.90;99.90;;;;;;6226124;23;20196;-83
2021/11/09 12:43:49;;;;;;;19.55;7.55;;;13.00;99.90;;;;;;6226786;23;20205;-82
2021/11/09 12:46:23;;;;;;;21.40;10.15;;;12.80;99.90;;;;;;6224802;23;20183;-83
2021/11/09 12:48:58;;;;;;;15.95;7.40;;;12.90;99.90;;;;;;6225752;23;20197;-82
2021/11/09 12:51:29;;;;;;;20.30;8.35;;;12.90;99.90;;;;;;6225282;23;20211;-83
2021/11/09 12:54:03;;;;;;;24.00;9.43;;;12.80;99.90;;;;;;6226313;23;20179;-84
2021/11/09 12:56:33;;;;;;;21.40;7.53;;;12.90;99.90;;;;;;6226543;23;20198;-83
2021/11/09 12:59:05;;;;;;;18.20;9.13;;;13.00;99.90;;;;;;6224703;23;20231;-84
2021/11/09 13:01:41;;;;;;;24.13;9.50;;;13.10;99.90;;;;;;6224104;23;20484;-82
2021/11/09 13:04:16;;;;;;;18.55;8.30;;;13.20;99.90;;;;;;6224693;23;20190;-85
2021/11/09 13:06:54;;;;;;;12.07;7.60;;;13.10;99.90;;;;;;6226518;23;20505;-83
2021/11/09 13:09:26;;;;;;;16.17;7.63;;;13.10;99.90;;;;;;6239893;23;20174;-83
2021/11/09 13:11:57;;;;;;;21.92;9.50;;;13.20;99.90;;;;;;6237970;23;20202;-80
2021/11/09 13:14:34;;;;;;;21.02;9.20;;;13.10;99.90;;;;;;6238309;23;20292;-83
2021/11/09 13:17:09;;;;;;;14.73;7.93;;;13.10;99.90;;;;;;6236181;23;20622;-83
2021/11/09 13:19:38;;;;;;;21.48;7.65;;;13.20;99.90;;;;;;6237255;23;20194;-83
2021/11/09 13:22:09;;;;;;;16.05;7.25;;;13.20;99.90;;;;;;6235903;23;20199;-82
2021/11/09 13:24:39;;;;;;;18.10;7.00;;;13.20;99.90;;;;;;6233081;23;20219;-82
2021/11/09 13:27:08;;;;;;;16.10;6.60;;;13.20;99.90;;;;;;6232654;23;20171;-83
2021/11/09 13:29:41;;;;;;;20.23;7.05;;;13.20;99.90;;;;;;6236336;23;20242;-83
2021/11/09 13:32:08;;;;;;;13.10;6.68;;;13.20;99.90;;;;;;6226518;23;20597;-82
2021/11/09 13:34:36;;;;;;;14.73;6.68;;;13.20;99.90;;;;;;6223713;23;20206;-82
2021/11/09 13:37:03;;;;;;;15.93;6.10;;;13.20;99.90;;;;;;6222705;23;20261;-83
2021/11/09 13:39:30;;;;;;;12.73;5.85;;;13.00;99.90;;;;;;6222742;23;20215;-81
2021/11/09 13:41:59;;;;;;;13.23;5.22;;;13.00;99.90;;;;;;6222640;23;20237;-83
2021/11/09 13:44:32;;;;;;;13.98;5.22;;;13.00;99.90;;;;;;6222887;23;20263;-83
2021/11/09 13:46:59;;;;;;;15.45;6.32;;;13.00;99.90;;;;;;6222872;23;20166;-84
2021/11/09 13:49:26;;;;;;;14.52;4.78;;;12.90;99.90;;;;;;6224974;23;20182;-83
2021/11/09 13:51:59;;;;;;;20.13;4.55;;;12.90;99.90;;;;;;6222484;23;20224;-83
2021/11/09 13:54:32;;;;;;;13.48;5.53;;;12.90;99.90;;;;;;6224124;23;20160;-82
2021/11/09 13:57:02;;;;;;;15.88;5.15;;;12.90;99.90;;;;;;6224785;23;20243;-81
2021/11/09 13:59:32;;;;;;;14.07;5.32;;;13.00;99.90;;;;;;6224403;23;20182;-82
2021/11/09 14:02:03;;;;;;;14.77;4.82;;;13.00;99.90;;;;;;6228850;23;20277;-82
2021/11/09 14:18:55;;;;;;;10.77;4.28;;;13.10;99.90;;;;;;6231603;23;20175;-82
2021/11/09 14:21:34;;;;;;;16.63;5.38;;;13.00;99.90;;;;;;6230050;23;20311;-83
2021/11/09 14:24:11;;;;;;;14.80;6.00;;;13.00;99.90;;;;;;6226744;23;20278;-82
2021/11/09 14:26:39;;;;;;;17.27;5.40;;;12.90;99.90;;;;;;6225712;23;20181;-83
2021/11/09 14:29:20;;;;;;;11.10;4.93;;;13.00;99.90;;;;;;6225943;23;20179;-83
2021/11/09 14:31:58;;;;;;;14.80;6.53;;;13.10;99.90;;;;;;6230029;23;20203;-83
2021/11/09 14:34:26;;;;;;;13.00;5.05;;;12.90;99.90;;;;;;6231510;23;20174;-83